sensor_id;sensor_type;location;lat;lon;timestamp;temperature;humidity
9824;DHT22;4951;50.778;7.196;2024-02-23T00:01:18;6.20;1.00
9824;DHT22;4951;50.778;7.196;2024-02-23T00:03:48;6.00;1.00
9824;DHT22;4951;50.778;7.196;2024-02-23T00:06:17;5.90;99.90
9824;DHT22;4951;50.778;7.196;2024-02-23T00:08:50;5.80;99.90
9824;DHT22;4951;50.778;7.196;2024-02-23T00:11:21;5.70;1.00
9824;DHT22;4951;50.778;7.196;2024-02-23T00:13:55;5.70;1.00
9824;DHT22;4951;50.778;7.196;2024-02-23T00:16:24;5.70;1.00
9824;DHT22;4951;50.778;7.196;2024-02-23T00:18:54;5.60;1.00
9824;DHT22;4951;50.778;7.196;2024-02-23T00:21:23;5.60;1.00
9824;DHT22;4951;50.778;7.196;2024-02-23T00:23:51;5.60;50.10
9824;DHT22;4951;50.778;7.196;2024-02-23T00:26:38;5.50;99.90
9824;DHT22;4951;50.778;7.196;2024-02-23T00:29:10;5.50;99.90
9824;DHT22;4951;50.778;7.196;2024-02-23T00:31:46;5.60;99.90
9824;DHT22;4951;50.778;7.196;2024-02-23T00:34:14;5.60;75.00
9824;DHT22;4951;50.778;7.196;2024-02-23T00:36:43;5.60;1.00
9824;DHT22;4951;50.778;7.196;2024-02-23T00:39:12;5.60;1.00
9824;DHT22;4951;50.778;7.196;2024-02-23T00:41:40;5.70;1.00
9824;DHT22;4951;50.778;7.196;2024-02-23T00:44:13;5.70;1.00
9824;DHT22;4951;50.778;7.196;2024-02-23T00:46:41;5.70;1.00
9824;DHT22;4951;50.778;7.196;2024-02-23T00:49:09;5.60;1.00
9824;DHT22;4951;50.778;7.196;2024-02-23T00:51:47;5.60;99.90
9824;DHT22;4951;50.778;7.196;2024-02-23T00:54:19;5.60;99.90
9824;DHT22;4951;50.778;7.196;2024-02-23T00:56:49;5.50;99.90
9824;DHT22;4951;50.778;7.196;2024-02-23T00:59:28;5.50;99.90
9824;DHT22;4951;50.778;7.196;2024-02-23T01:01:58;5.40;99.90
9824;DHT22;4951;50.778;7.196;2024-02-23T01:04:31;5.40;99.90
9824;DHT22;4951;50.778;7.196;2024-02-23T01:07:00;5.30;99.90
9824;DHT22;4951;50.778;7.196;2024-02-23T01:09:28;5.30;99.90
9824;DHT22;4951;50.778;7.196;2024-02-23T01:11:57;5.20;99.90
9824;DHT22;4951;50.778;7.196;2024-02-23T01:14:31;5.20;1.00
9824;DHT22;4951;50.778;7.196;2024-02-23T01:17:01;5.10;1.00
9824;DHT22;4951;50.778;7.196;2024-02-23T01:19:29;5.00;1.00
9824;DHT22;4951;50.778;7.196;2024-02-23T01:21:59;4.90;1.00
9824;DHT22;4951;50.778;7.196;2024-02-23T01:24:28;4.80;1.00
9824;DHT22;4951;50.778;7.196;2024-02-23T01:26:59;4.70;1.00
9824;DHT22;4951;50.778;7.196;2024-02-23T01:29:35;4.70;1.00
9824;DHT22;4951;50.778;7.196;2024-02-23T01:32:05;4.60;1.00
9824;DHT22;4951;50.778;7.196;2024-02-23T01:34:34;4.60;1.00
9824;DHT22;4951;50.778;7.196;2024-02-23T01:37:02;4.60;1.00
9824;DHT22;4951;50.778;7.196;2024-02-23T01:39:33;4.60;1.00
9824;DHT22;4951;50.778;7.196;2024-02-23T01:42:02;4.60;1.00
9824;DHT22;4951;50.778;7.196;2024-02-23T01:44:32;4.60;1.00
9824;DHT22;4951;50.778;7.196;2024-02-23T01:47:03;4.60;1.00
9824;DHT22;4951;50.778;7.196;2024-02-23T01:49:44;4.60;1.00
9824;DHT22;4951;50.778;7.196;2024-02-23T01:52:17;4.60;1.00
9824;DHT22;4951;50.778;7.196;2024-02-23T01:54:54;4.60;1.00
9824;DHT22;4951;50.778;7.196;2024-02-23T01:57:24;4.60;1.00
9824;DHT22;4951;50.778;7.196;2024-02-23T01:59:55;4.60;1.00
9824;DHT22;4951;50.778;7.196;2024-02-23T02:02:26;4.60;1.00
9824;DHT22;4951;50.778;7.196;2024-02-23T02:05:01;4.60;1.00
9824;DHT22;4951;50.778;7.196;2024-02-23T02:07:37;4.60;1.00
9824;DHT22;4951;50.778;7.196;2024-02-23T02:10:10;4.60;1.00
9824;DHT22;4951;50.778;7.196;2024-02-23T02:12:41;4.60;1.00
9824;DHT22;4951;50.778;7.196;2024-02-23T02:15:12;4.60;99.90
9824;DHT22;4951;50.778;7.196;2024-02-23T02:17:44;4.50;99.90
9824;DHT22;4951;50.778;7.196;2024-02-23T02:20:14;4.50;99.90
9824;DHT22;4951;50.778;7.196;2024-02-23T02:22:50;4.50;99.90
9824;DHT22;4951;50.778;7.196;2024-02-23T02:25:36;4.50;1.00
9824;DHT22;4951;50.778;7.196;2024-02-23T02:28:06;4.40;1.00
9824;DHT22;4951;50.778;7.196;2024-02-23T02:30:35;4.40;1.00
9824;DHT22;4951;50.778;7.196;2024-02-23T02:33:06;4.40;1.00
9824;DHT22;4951;50.778;7.196;2024-02-23T02:35:38;4.30;1.00
9824;DHT22;4951;50.778;7.196;2024-02-23T02:38:07;4.30;1.00
9824;DHT22;4951;50.778;7.196;2024-02-23T02:40:37;4.30;1.00
9824;DHT22;4951;50.778;7.196;2024-02-23T02:43:09;4.30;1.00
9824;DHT22;4951;50.778;7.196;2024-02-23T02:45:42;4.30;1.00
9824;DHT22;4951;50.778;7.196;2024-02-23T02:48:12;4.30;1.00
9824;DHT22;4951;50.778;7.196;2024-02-23T02:50:43;4.30;1.00
9824;DHT22;4951;50.778;7.196;2024-02-23T02:53:15;4.30;1.00
9824;DHT22;4951;50.778;7.196;2024-02-23T02:55:46;4.30;99.90
9824;DHT22;4951;50.778;7.196;2024-02-23T02:58:15;4.30;99.90
9824;DHT22;4951;50.778;7.196;2024-02-23T03:00:49;4.30;99.90
9824;DHT22;4951;50.778;7.196;2024-02-23T03:03:24;4.40;99.90
9824;DHT22;4951;50.778;7.196;2024-02-23T03:06:01;4.40;99.90
9824;DHT22;4951;50.778;7.196;2024-02-23T03:08:32;4.40;99.90
9824;DHT22;4951;50.778;7.196;2024-02-23T03:11:01;4.30;99.90
9824;DHT22;4951;50.778;7.196;2024-02-23T03:13:32;4.30;99.90
9824;DHT22;4951;50.778;7.196;2024-02-23T03:16:04;4.30;99.90
9824;DHT22;4951;50.778;7.196;2024-02-23T03:18:34;4.30;99.90
9824;DHT22;4951;50.778;7.196;2024-02-23T03:21:08;4.30;99.90
9824;DHT22;4951;50.778;7.196;2024-02-23T03:23:40;4.30;99.90
9824;DHT22;4951;50.778;7.196;2024-02-23T03:26:12;4.30;99.90
9824;DHT22;4951;50.778;7.196;2024-02-23T03:28:44;4.30;99.90
9824;DHT22;4951;50.778;7.196;2024-02-23T03:31:13;4.30;99.90
9824;DHT22;4951;50.778;7.196;2024-02-23T03:33:42;4.20;99.90
9824;DHT22;4951;50.778;7.196;2024-02-23T03:36:11;4.20;99.90
9824;DHT22;4951;50.778;7.196;2024-02-23T03:38:43;4.10;99.90
9824;DHT22;4951;50.778;7.196;2024-02-23T03:41:16;4.10;99.90
9824;DHT22;4951;50.778;7.196;2024-02-23T03:43:45;4.00;99.90
9824;DHT22;4951;50.778;7.196;2024-02-23T03:46:14;4.00;99.90
9824;DHT22;4951;50.778;7.196;2024-02-23T03:48:45;4.00;99.90
9824;DHT22;4951;50.778;7.196;2024-02-23T03:51:19;4.00;99.90
9824;DHT22;4951;50.778;7.196;2024-02-23T03:53:55;4.10;99.90
9824;DHT22;4951;50.778;7.196;2024-02-23T03:56:38;4.10;99.90
9824;DHT22;4951;50.778;7.196;2024-02-23T03:59:07;4.10;99.90
9824;DHT22;4951;50.778;7.196;2024-02-23T04:01:37;4.20;99.90
9824;DHT22;4951;50.778;7.196;2024-02-23T04:04:12;4.20;99.90
9824;DHT22;4951;50.778;7.196;2024-02-23T04:06:46;4.20;99.90
9824;DHT22;4951;50.778;7.196;2024-02-23T04:09:33;4.20;99.90
9824;DHT22;4951;50.778;7.196;2024-02-23T04:12:08;4.20;99.90
9824;DHT22;4951;50.778;7.196;2024-02-23T04:14:50;4.10;99.90
9824;DHT22;4951;50.778;7.196;2024-02-23T04:17:37;4.10;99.90
9824;DHT22;4951;50.778;7.196;2024-02-23T04:20:26;4.10;99.90
9824;DHT22;4951;50.778;7.196;2024-02-23T04:23:13;4.00;99.90
9824;DHT22;4951;50.778;7.196;2024-02-23T04:25:58;4.00;99.90
9824;DHT22;4951;50.778;7.196;2024-02-23T04:28:38;4.00;99.90
9824;DHT22;4951;50.778;7.196;2024-02-23T04:31:09;3.90;99.90
9824;DHT22;4951;50.778;7.196;2024-02-23T04:33:40;4.00;99.90
9824;DHT22;4951;50.778;7.196;2024-02-23T04:36:14;4.00;99.90
9824;DHT22;4951;50.778;7.196;2024-02-23T04:38:48;4.00;99.90
9824;DHT22;4951;50.778;7.196;2024-02-23T04:41:23;4.00;99.90
9824;DHT22;4951;50.778;7.196;2024-02-23T04:43:58;4.10;99.90
9824;DHT22;4951;50.778;7.196;2024-02-23T04:46:28;4.00;99.90
9824;DHT22;4951;50.778;7.196;2024-02-23T04:49:01;4.00;99.90
9824;DHT22;4951;50.778;7.196;2024-02-23T04:51:31;3.90;99.90
9824;DHT22;4951;50.778;7.196;2024-02-23T04:53:59;3.90;99.90
9824;DHT22;4951;50.778;7.196;2024-02-23T04:56:30;3.90;99.90
9824;DHT22;4951;50.778;7.196;2024-02-23T04:58:59;3.90;99.90
9824;DHT22;4951;50.778;7.196;2024-02-23T05:01:35;3.90;99.90
9824;DHT22;4951;50.778;7.196;2024-02-23T05:04:03;3.90;99.90
9824;DHT22;4951;50.778;7.196;2024-02-23T05:06:33;3.90;99.90
9824;DHT22;4951;50.778;7.196;2024-02-23T05:09:02;3.90;99.90
9824;DHT22;4951;50.778;7.196;2024-02-23T05:11:30;3.90;99.90
9824;DHT22;4951;50.778;7.196;2024-02-23T05:13:57;3.90;99.90
9824;DHT22;4951;50.778;7.196;2024-02-23T05:16:29;3.90;99.90
9824;DHT22;4951;50.778;7.196;2024-02-23T05:19:02;3.90;99.90
9824;DHT22;4951;50.778;7.196;2024-02-23T05:21:31;3.80;99.90
9824;DHT22;4951;50.778;7.196;2024-02-23T05:24:01;3.80;99.90
9824;DHT22;4951;50.778;7.196;2024-02-23T05:26:32;3.80;99.90
9824;DHT22;4951;50.778;7.196;2024-02-23T05:29:07;3.80;99.90
9824;DHT22;4951;50.778;7.196;2024-02-23T05:31:44;3.70;1.00
9824;DHT22;4951;50.778;7.196;2024-02-23T05:34:18;3.70;1.00
9824;DHT22;4951;50.778;7.196;2024-02-23T05:36:47;3.70;1.00
9824;DHT22;4951;50.778;7.196;2024-02-23T05:39:20;3.70;1.00
9824;DHT22;4951;50.778;7.196;2024-02-23T05:41:48;3.70;1.00
9824;DHT22;4951;50.778;7.196;2024-02-23T05:44:20;3.70;1.00
9824;DHT22;4951;50.778;7.196;2024-02-23T05:46:49;3.70;1.00
9824;DHT22;4951;50.778;7.196;2024-02-23T05:49:17;3.70;1.00
9824;DHT22;4951;50.778;7.196;2024-02-23T05:51:46;3.70;1.00
9824;DHT22;4951;50.778;7.196;2024-02-23T05:54:16;3.80;1.00
9824;DHT22;4951;50.778;7.196;2024-02-23T05:56:47;3.80;1.00
9824;DHT22;4951;50.778;7.196;2024-02-23T05:59:23;3.80;1.00
9824;DHT22;4951;50.778;7.196;2024-02-23T06:01:54;3.80;1.00
9824;DHT22;4951;50.778;7.196;2024-02-23T06:04:28;3.80;1.00
9824;DHT22;4951;50.778;7.196;2024-02-23T06:06:57;3.70;1.00
9824;DHT22;4951;50.778;7.196;2024-02-23T06:09:26;3.70;1.00
9824;DHT22;4951;50.778;7.196;2024-02-23T06:12:00;3.70;1.00
9824;DHT22;4951;50.778;7.196;2024-02-23T06:14:33;3.70;1.00
9824;DHT22;4951;50.778;7.196;2024-02-23T06:17:00;3.70;1.00
9824;DHT22;4951;50.778;7.196;2024-02-23T06:19:30;3.80;1.00
9824;DHT22;4951;50.778;7.196;2024-02-23T06:21:59;3.70;1.00
9824;DHT22;4951;50.778;7.196;2024-02-23T06:24:27;3.80;1.00
9824;DHT22;4951;50.778;7.196;2024-02-23T06:26:55;3.90;1.00
9824;DHT22;4951;50.778;7.196;2024-02-23T06:29:27;4.00;1.00
9824;DHT22;4951;50.778;7.196;2024-02-23T06:31:58;4.00;1.00
9824;DHT22;4951;50.778;7.196;2024-02-23T06:34:28;4.10;1.00
9824;DHT22;4951;50.778;7.196;2024-02-23T06:36:56;4.10;1.00
9824;DHT22;4951;50.778;7.196;2024-02-23T06:39:27;4.20;1.00
9824;DHT22;4951;50.778;7.196;2024-02-23T06:41:56;4.20;1.00
9824;DHT22;4951;50.778;7.196;2024-02-23T06:44:33;4.20;1.00
9824;DHT22;4951;50.778;7.196;2024-02-23T06:47:02;4.20;1.00
9824;DHT22;4951;50.778;7.196;2024-02-23T06:49:33;4.30;1.00
9824;DHT22;4951;50.778;7.196;2024-02-23T06:52:01;4.30;1.00
9824;DHT22;4951;50.778;7.196;2024-02-23T06:54:29;4.30;1.00
9824;DHT22;4951;50.778;7.196;2024-02-23T06:57:04;4.40;1.00
9824;DHT22;4951;50.778;7.196;2024-02-23T06:59:36;4.40;1.00
9824;DHT22;4951;50.778;7.196;2024-02-23T07:02:06;4.50;1.00
9824;DHT22;4951;50.778;7.196;2024-02-23T07:04:36;4.50;99.90
9824;DHT22;4951;50.778;7.196;2024-02-23T07:07:05;4.60;99.90
9824;DHT22;4951;50.778;7.196;2024-02-23T07:09:39;4.60;99.90
9824;DHT22;4951;50.778;7.196;2024-02-23T07:12:10;4.60;99.90
9824;DHT22;4951;50.778;7.196;2024-02-23T07:14:42;4.70;99.90
9824;DHT22;4951;50.778;7.196;2024-02-23T07:17:16;4.70;1.00
9824;DHT22;4951;50.778;7.196;2024-02-23T07:19:46;4.80;1.00
9824;DHT22;4951;50.778;7.196;2024-02-23T07:22:15;4.80;1.00
9824;DHT22;4951;50.778;7.196;2024-02-23T07:24:52;4.90;1.00
9824;DHT22;4951;50.778;7.196;2024-02-23T07:27:20;5.00;1.00
9824;DHT22;4951;50.778;7.196;2024-02-23T07:30:00;5.10;1.00
9824;DHT22;4951;50.778;7.196;2024-02-23T07:32:35;5.20;1.00
9824;DHT22;4951;50.778;7.196;2024-02-23T07:35:07;5.30;1.00
9824;DHT22;4951;50.778;7.196;2024-02-23T07:37:40;5.30;99.90
9824;DHT22;4951;50.778;7.196;2024-02-23T07:40:13;5.40;1.00
9824;DHT22;4951;50.778;7.196;2024-02-23T07:42:43;5.50;1.00
9824;DHT22;4951;50.778;7.196;2024-02-23T07:45:12;5.60;1.00
9824;DHT22;4951;50.778;7.196;2024-02-23T07:47:42;5.70;1.00
9824;DHT22;4951;50.778;7.196;2024-02-23T07:50:10;5.80;1.00
9824;DHT22;4951;50.778;7.196;2024-02-23T07:52:39;5.90;99.90
9824;DHT22;4951;50.778;7.196;2024-02-23T07:55:08;5.90;99.90
9824;DHT22;4951;50.778;7.196;2024-02-23T07:57:36;5.90;51.90
9824;DHT22;4951;50.778;7.196;2024-02-23T08:00:07;5.90;1.00
9824;DHT22;4951;50.778;7.196;2024-02-23T08:02:44;6.00;1.00
9824;DHT22;4951;50.778;7.196;2024-02-23T08:05:11;6.00;1.00
9824;DHT22;4951;50.778;7.196;2024-02-23T08:07:39;6.10;99.90
9824;DHT22;4951;50.778;7.196;2024-02-23T08:10:09;6.20;99.90
9824;DHT22;4951;50.778;7.196;2024-02-23T08:12:38;6.30;99.90
9824;DHT22;4951;50.778;7.196;2024-02-23T08:15:08;6.30;99.90
9824;DHT22;4951;50.778;7.196;2024-02-23T08:17:45;6.40;1.00
9824;DHT22;4951;50.778;7.196;2024-02-23T08:20:14;6.40;99.90
9824;DHT22;4951;50.778;7.196;2024-02-23T08:22:49;6.50;99.90
9824;DHT22;4951;50.778;7.196;2024-02-23T08:25:18;6.60;1.00
9824;DHT22;4951;50.778;7.196;2024-02-23T08:27:51;6.80;1.00
9824;DHT22;4951;50.778;7.196;2024-02-23T08:30:21;6.90;99.90
9824;DHT22;4951;50.778;7.196;2024-02-23T08:32:53;7.10;99.90
9824;DHT22;4951;50.778;7.196;2024-02-23T08:35:31;7.20;1.00
9824;DHT22;4951;50.778;7.196;2024-02-23T08:38:05;7.10;1.00
9824;DHT22;4951;50.778;7.196;2024-02-23T08:40:38;7.20;1.00
9824;DHT22;4951;50.778;7.196;2024-02-23T08:43:10;7.10;1.00
9824;DHT22;4951;50.778;7.196;2024-02-23T08:45:43;7.10;1.00
9824;DHT22;4951;50.778;7.196;2024-02-23T08:48:15;7.20;1.00
9824;DHT22;4951;50.778;7.196;2024-02-23T08:50:43;7.20;1.00
9824;DHT22;4951;50.778;7.196;2024-02-23T08:53:11;7.30;1.00
9824;DHT22;4951;50.778;7.196;2024-02-23T08:55:41;7.30;1.00
9824;DHT22;4951;50.778;7.196;2024-02-23T08:58:13;7.40;1.00
9824;DHT22;4951;50.778;7.196;2024-02-23T09:00:47;7.40;1.00
9824;DHT22;4951;50.778;7.196;2024-02-23T09:03:17;7.40;99.90
9824;DHT22;4951;50.778;7.196;2024-02-23T09:05:46;7.50;99.90
9824;DHT22;4951;50.778;7.196;2024-02-23T09:08:14;7.50;99.90
9824;DHT22;4951;50.778;7.196;2024-02-23T09:10:43;7.50;99.90
9824;DHT22;4951;50.778;7.196;2024-02-23T09:13:11;7.50;1.00
9824;DHT22;4951;50.778;7.196;2024-02-23T09:15:42;7.60;1.00
9824;DHT22;4951;50.778;7.196;2024-02-23T09:18:19;7.60;1.00
9824;DHT22;4951;50.778;7.196;2024-02-23T09:20:59;7.70;99.90
9824;DHT22;4951;50.778;7.196;2024-02-23T09:23:33;7.70;99.90
9824;DHT22;4951;50.778;7.196;2024-02-23T09:26:09;7.70;1.00
9824;DHT22;4951;50.778;7.196;2024-02-23T09:28:37;7.70;10.60
9824;DHT22;4951;50.778;7.196;2024-02-23T09:31:09;7.70;1.00
9824;DHT22;4951;50.778;7.196;2024-02-23T09:33:40;7.70;1.00
9824;DHT22;4951;50.778;7.196;2024-02-23T09:36:17;7.70;1.00
9824;DHT22;4951;50.778;7.196;2024-02-23T09:38:48;7.70;1.00
9824;DHT22;4951;50.778;7.196;2024-02-23T09:41:21;7.80;1.00
9824;DHT22;4951;50.778;7.196;2024-02-23T09:43:50;7.80;1.00
9824;DHT22;4951;50.778;7.196;2024-02-23T09:46:19;7.80;1.00
9824;DHT22;4951;50.778;7.196;2024-02-23T09:48:55;7.80;1.00
9824;DHT22;4951;50.778;7.196;2024-02-23T09:51:43;7.90;1.00
9824;DHT22;4951;50.778;7.196;2024-02-23T09:54:11;7.90;1.00
9824;DHT22;4951;50.778;7.196;2024-02-23T09:56:40;7.90;1.00
9824;DHT22;4951;50.778;7.196;2024-02-23T09:59:11;7.90;1.00
9824;DHT22;4951;50.778;7.196;2024-02-23T10:01:43;7.90;1.00
9824;DHT22;4951;50.778;7.196;2024-02-23T10:04:24;8.00;1.00
9824;DHT22;4951;50.778;7.196;2024-02-23T10:06:59;8.10;1.00
9824;DHT22;4951;50.778;7.196;2024-02-23T10:09:42;8.20;1.00
9824;DHT22;4951;50.778;7.196;2024-02-23T10:12:20;8.20;99.90
9824;DHT22;4951;50.778;7.196;2024-02-23T10:14:52;8.20;99.90
9824;DHT22;4951;50.778;7.196;2024-02-23T10:17:38;8.30;99.90
9824;DHT22;4951;50.778;7.196;2024-02-23T10:20:18;8.30;99.90
9824;DHT22;4951;50.778;7.196;2024-02-23T10:22:52;8.30;1.00
9824;DHT22;4951;50.778;7.196;2024-02-23T10:25:23;8.40;1.00
9824;DHT22;4951;50.778;7.196;2024-02-23T10:28:08;8.50;1.00
9824;DHT22;4951;50.778;7.196;2024-02-23T10:30:48;8.50;99.90
9824;DHT22;4951;50.778;7.196;2024-02-23T10:33:35;8.50;99.90
9824;DHT22;4951;50.778;7.196;2024-02-23T10:36:12;8.50;99.90
9824;DHT22;4951;50.778;7.196;2024-02-23T10:39:02;8.40;1.00
9824;DHT22;4951;50.778;7.196;2024-02-23T10:41:56;8.30;99.90
9824;DHT22;4951;50.778;7.196;2024-02-23T10:44:37;8.30;99.90
9824;DHT22;4951;50.778;7.196;2024-02-23T10:47:08;8.30;1.00
9824;DHT22;4951;50.778;7.196;2024-02-23T10:49:45;8.40;1.00
9824;DHT22;4951;50.778;7.196;2024-02-23T10:52:24;8.50;1.00
9824;DHT22;4951;50.778;7.196;2024-02-23T10:54:54;8.60;99.90
9824;DHT22;4951;50.778;7.196;2024-02-23T10:57:40;8.70;1.00
9824;DHT22;4951;50.778;7.196;2024-02-23T11:00:14;8.80;1.00
9824;DHT22;4951;50.778;7.196;2024-02-23T11:02:52;8.90;99.90
9824;DHT22;4951;50.778;7.196;2024-02-23T11:05:23;8.90;1.00
9824;DHT22;4951;50.778;7.196;2024-02-23T11:07:58;8.90;1.00
9824;DHT22;4951;50.778;7.196;2024-02-23T11:10:27;8.90;1.00
9824;DHT22;4951;50.778;7.196;2024-02-23T11:12:59;8.80;1.00
9824;DHT22;4951;50.778;7.196;2024-02-23T11:15:31;8.80;1.00
9824;DHT22;4951;50.778;7.196;2024-02-23T11:18:23;8.80;99.90
9824;DHT22;4951;50.778;7.196;2024-02-23T11:21:00;9.10;1.00
9824;DHT22;4951;50.778;7.196;2024-02-23T11:23:43;9.40;99.90
9824;DHT22;4951;50.778;7.196;2024-02-23T11:26:27;9.60;99.90
9824;DHT22;4951;50.778;7.196;2024-02-23T11:29:11;9.70;1.00
9824;DHT22;4951;50.778;7.196;2024-02-23T11:31:44;9.70;1.00
9824;DHT22;4951;50.778;7.196;2024-02-23T11:34:22;9.90;1.00
9824;DHT22;4951;50.778;7.196;2024-02-23T11:36:54;10.20;1.00
9824;DHT22;4951;50.778;7.196;2024-02-23T11:39:43;10.50;1.00
9824;DHT22;4951;50.778;7.196;2024-02-23T11:42:27;10.70;1.00
9824;DHT22;4951;50.778;7.196;2024-02-23T11:45:15;10.60;99.90
9824;DHT22;4951;50.778;7.196;2024-02-23T11:47:46;10.70;99.90
9824;DHT22;4951;50.778;7.196;2024-02-23T11:50:21;10.70;99.90
9824;DHT22;4951;50.778;7.196;2024-02-23T11:53:03;10.60;99.90
9824;DHT22;4951;50.778;7.196;2024-02-23T11:55:39;10.60;99.90
9824;DHT22;4951;50.778;7.196;2024-02-23T11:58:09;10.70;99.90
9824;DHT22;4951;50.778;7.196;2024-02-23T12:00:42;10.80;99.90
9824;DHT22;4951;50.778;7.196;2024-02-23T12:03:18;10.70;99.90
9824;DHT22;4951;50.778;7.196;2024-02-23T12:06:03;10.60;99.90
9824;DHT22;4951;50.778;7.196;2024-02-23T12:08:42;10.40;99.90
9824;DHT22;4951;50.778;7.196;2024-02-23T12:11:24;10.30;99.90
9824;DHT22;4951;50.778;7.196;2024-02-23T12:14:11;10.20;99.90
9824;DHT22;4951;50.778;7.196;2024-02-23T12:16:42;10.10;99.90
9824;DHT22;4951;50.778;7.196;2024-02-23T12:19:17;10.00;99.90
9824;DHT22;4951;50.778;7.196;2024-02-23T12:22:01;9.90;99.90
9824;DHT22;4951;50.778;7.196;2024-02-23T12:24:35;9.90;99.90
9824;DHT22;4951;50.778;7.196;2024-02-23T12:27:11;9.90;99.90
9824;DHT22;4951;50.778;7.196;2024-02-23T12:29:42;9.90;99.90
9824;DHT22;4951;50.778;7.196;2024-02-23T12:32:22;9.90;99.90
9824;DHT22;4951;50.778;7.196;2024-02-23T12:34:57;9.80;99.90
9824;DHT22;4951;50.778;7.196;2024-02-23T12:37:27;9.70;99.90
9824;DHT22;4951;50.778;7.196;2024-02-23T12:40:03;9.80;99.90
9824;DHT22;4951;50.778;7.196;2024-02-23T12:42:41;9.90;99.90
9824;DHT22;4951;50.778;7.196;2024-02-23T12:45:18;10.00;99.90
9824;DHT22;4951;50.778;7.196;2024-02-23T12:48:06;10.00;99.90
9824;DHT22;4951;50.778;7.196;2024-02-23T12:50:36;9.90;99.90
9824;DHT22;4951;50.778;7.196;2024-02-23T12:53:41;9.90;99.90
9824;DHT22;4951;50.778;7.196;2024-02-23T12:56:14;9.90;99.90
9824;DHT22;4951;50.778;7.196;2024-02-23T12:58:50;9.90;99.90
9824;DHT22;4951;50.778;7.196;2024-02-23T13:01:22;9.90;99.90
9824;DHT22;4951;50.778;7.196;2024-02-23T13:03:55;10.00;99.90
9824;DHT22;4951;50.778;7.196;2024-02-23T13:06:39;10.00;99.90
9824;DHT22;4951;50.778;7.196;2024-02-23T13:09:10;10.10;99.90
9824;DHT22;4951;50.778;7.196;2024-02-23T13:11:55;10.10;99.90
9824;DHT22;4951;50.778;7.196;2024-02-23T13:14:44;10.10;99.90
9824;DHT22;4951;50.778;7.196;2024-02-23T13:17:18;10.00;99.90
9824;DHT22;4951;50.778;7.196;2024-02-23T13:20:06;10.00;99.90
9824;DHT22;4951;50.778;7.196;2024-02-23T13:22:53;10.20;99.90
9824;DHT22;4951;50.778;7.196;2024-02-23T13:25:27;10.50;99.90
9824;DHT22;4951;50.778;7.196;2024-02-23T13:27:58;11.00;99.90
9824;DHT22;4951;50.778;7.196;2024-02-23T13:30:33;11.10;99.90
9824;DHT22;4951;50.778;7.196;2024-02-23T13:33:06;11.00;99.90
9824;DHT22;4951;50.778;7.196;2024-02-23T13:35:38;10.90;99.90
9824;DHT22;4951;50.778;7.196;2024-02-23T13:38:13;10.80;99.90
9824;DHT22;4951;50.778;7.196;2024-02-23T13:40:47;11.20;99.90
9824;DHT22;4951;50.778;7.196;2024-02-23T13:43:26;11.40;99.90
9824;DHT22;4951;50.778;7.196;2024-02-23T13:46:00;11.50;99.90
9824;DHT22;4951;50.778;7.196;2024-02-23T13:48:38;11.50;99.90
9824;DHT22;4951;50.778;7.196;2024-02-23T13:51:12;11.30;78.50
9824;DHT22;4951;50.778;7.196;2024-02-23T13:53:47;11.10;74.20
9824;DHT22;4951;50.778;7.196;2024-02-23T13:56:31;11.00;99.90
9824;DHT22;4951;50.778;7.196;2024-02-23T13:59:02;11.10;99.90
9824;DHT22;4951;50.778;7.196;2024-02-23T14:01:36;11.50;99.90
9824;DHT22;4951;50.778;7.196;2024-02-23T14:04:22;12.00;99.90
9824;DHT22;4951;50.778;7.196;2024-02-23T14:06:57;12.30;99.90
9824;DHT22;4951;50.778;7.196;2024-02-23T14:09:34;12.40;7.20
9824;DHT22;4951;50.778;7.196;2024-02-23T14:12:17;12.30;1.00
9824;DHT22;4951;50.778;7.196;2024-02-23T14:14:54;12.10;1.00
9824;DHT22;4951;50.778;7.196;2024-02-23T14:17:34;11.90;1.00
9824;DHT22;4951;50.778;7.196;2024-02-23T14:20:09;11.70;1.00
9824;DHT22;4951;50.778;7.196;2024-02-23T14:22:56;11.40;1.00
9824;DHT22;4951;50.778;7.196;2024-02-23T14:25:28;11.10;1.00
9824;DHT22;4951;50.778;7.196;2024-02-23T14:28:05;10.90;1.00
9824;DHT22;4951;50.778;7.196;2024-02-23T14:30:34;10.70;1.00
9824;DHT22;4951;50.778;7.196;2024-02-23T14:33:10;10.70;1.00
9824;DHT22;4951;50.778;7.196;2024-02-23T14:35:52;10.60;1.00
9824;DHT22;4951;50.778;7.196;2024-02-23T14:38:39;10.50;1.00
9824;DHT22;4951;50.778;7.196;2024-02-23T14:41:13;10.60;1.00
9824;DHT22;4951;50.778;7.196;2024-02-23T14:44:00;11.10;1.00
9824;DHT22;4951;50.778;7.196;2024-02-23T14:46:40;11.70;1.00
9824;DHT22;4951;50.778;7.196;2024-02-23T14:49:24;12.00;1.00
9824;DHT22;4951;50.778;7.196;2024-02-23T14:52:04;12.00;1.00
9824;DHT22;4951;50.778;7.196;2024-02-23T14:54:41;11.80;1.00
9824;DHT22;4951;50.778;7.196;2024-02-23T14:57:11;11.60;1.00
9824;DHT22;4951;50.778;7.196;2024-02-23T14:59:45;11.30;1.00
9824;DHT22;4951;50.778;7.196;2024-02-23T15:02:23;11.00;1.00
9824;DHT22;4951;50.778;7.196;2024-02-23T15:04:53;10.80;1.00
9824;DHT22;4951;50.778;7.196;2024-02-23T15:07:21;10.60;1.00
9824;DHT22;4951;50.778;7.196;2024-02-23T15:09:51;10.60;1.00
9824;DHT22;4951;50.778;7.196;2024-02-23T15:12:19;10.40;1.00
9824;DHT22;4951;50.778;7.196;2024-02-23T15:14:48;10.30;1.00
9824;DHT22;4951;50.778;7.196;2024-02-23T15:17:17;10.10;1.00
9824;DHT22;4951;50.778;7.196;2024-02-23T15:19:47;9.90;4.40
9824;DHT22;4951;50.778;7.196;2024-02-23T15:22:18;9.80;60.00
9824;DHT22;4951;50.778;7.196;2024-02-23T15:24:46;9.70;99.90
9824;DHT22;4951;50.778;7.196;2024-02-23T15:27:16;9.60;99.90
9824;DHT22;4951;50.778;7.196;2024-02-23T15:29:47;9.50;99.90
9824;DHT22;4951;50.778;7.196;2024-02-23T15:32:18;9.40;99.90
9824;DHT22;4951;50.778;7.196;2024-02-23T15:34:46;9.40;99.90
9824;DHT22;4951;50.778;7.196;2024-02-23T15:37:15;9.30;99.90
9824;DHT22;4951;50.778;7.196;2024-02-23T15:39:44;9.30;1.00
9824;DHT22;4951;50.778;7.196;2024-02-23T15:42:16;9.30;1.00
9824;DHT22;4951;50.778;7.196;2024-02-23T15:44:48;9.30;1.00
9824;DHT22;4951;50.778;7.196;2024-02-23T15:47:17;9.30;1.00
9824;DHT22;4951;50.778;7.196;2024-02-23T15:49:46;9.30;1.00
9824;DHT22;4951;50.778;7.196;2024-02-23T15:52:17;9.30;1.00
9824;DHT22;4951;50.778;7.196;2024-02-23T15:55:00;9.30;1.00
9824;DHT22;4951;50.778;7.196;2024-02-23T15:57:30;9.20;1.00
9824;DHT22;4951;50.778;7.196;2024-02-23T16:00:00;9.10;1.00
9824;DHT22;4951;50.778;7.196;2024-02-23T16:02:29;8.90;1.00
9824;DHT22;4951;50.778;7.196;2024-02-23T16:04:58;8.80;1.00
9824;DHT22;4951;50.778;7.196;2024-02-23T16:07:27;8.70;1.00
9824;DHT22;4951;50.778;7.196;2024-02-23T16:10:00;8.70;1.00
9824;DHT22;4951;50.778;7.196;2024-02-23T16:12:32;8.60;1.00
9824;DHT22;4951;50.778;7.196;2024-02-23T16:15:02;8.60;1.00
9824;DHT22;4951;50.778;7.196;2024-02-23T16:17:35;8.60;1.00
9824;DHT22;4951;50.778;7.196;2024-02-23T16:20:08;8.50;1.00
9824;DHT22;4951;50.778;7.196;2024-02-23T16:22:46;8.50;1.00
9824;DHT22;4951;50.778;7.196;2024-02-23T16:25:22;8.50;1.00
9824;DHT22;4951;50.778;7.196;2024-02-23T16:28:00;8.40;1.00
9824;DHT22;4951;50.778;7.196;2024-02-23T16:30:34;8.30;50.60
9824;DHT22;4951;50.778;7.196;2024-02-23T16:33:09;8.30;99.90
9824;DHT22;4951;50.778;7.196;2024-02-23T16:35:37;8.20;99.90
9824;DHT22;4951;50.778;7.196;2024-02-23T16:38:06;8.20;99.90
9824;DHT22;4951;50.778;7.196;2024-02-23T16:40:37;8.10;99.90
9824;DHT22;4951;50.778;7.196;2024-02-23T16:43:09;8.10;99.90
9824;DHT22;4951;50.778;7.196;2024-02-23T16:45:39;8.10;1.00
9824;DHT22;4951;50.778;7.196;2024-02-23T16:48:11;8.10;1.00
9824;DHT22;4951;50.778;7.196;2024-02-23T16:50:40;8.00;1.00
9824;DHT22;4951;50.778;7.196;2024-02-23T16:53:09;8.00;1.00
9824;DHT22;4951;50.778;7.196;2024-02-23T16:55:41;7.90;1.00
9824;DHT22;4951;50.778;7.196;2024-02-23T16:58:11;7.80;1.00
9824;DHT22;4951;50.778;7.196;2024-02-23T17:00:44;7.70;1.00
9824;DHT22;4951;50.778;7.196;2024-02-23T17:03:13;7.70;1.00
9824;DHT22;4951;50.778;7.196;2024-02-23T17:05:49;7.60;1.00